sensor_id;sensor_type;location;lat;lon;timestamp;P1;durP1;ratioP1;P2;durP2;ratioP2
27632;SDS011;15046;50.930;13.334;2023-12-14T00:00:18;21.55;;;13.38;;
27632;SDS011;15046;50.930;13.334;2023-12-14T00:02:44;19.67;;;12.85;;
27632;SDS011;15046;50.930;13.334;2023-12-14T00:05:10;20.58;;;13.30;;
27632;SDS011;15046;50.930;13.334;2023-12-14T00:07:36;24.60;;;13.75;;
27632;SDS011;15046;50.930;13.334;2023-12-14T00:10:02;19.05;;;12.93;;
27632;SDS011;15046;50.930;13.334;2023-12-14T00:12:30;26.10;;;14.85;;
27632;SDS011;15046;50.930;13.334;2023-12-14T00:14:56;25.77;;;14.23;;
27632;SDS011;15046;50.930;13.334;2023-12-14T00:17:22;23.08;;;13.23;;
27632;SDS011;15046;50.930;13.334;2023-12-14T00:19:48;21.75;;;13.07;;
27632;SDS011;15046;50.930;13.334;2023-12-14T00:22:14;24.60;;;13.05;;
27632;SDS011;15046;50.930;13.334;2023-12-14T00:24:40;25.15;;;14.75;;
27632;SDS011;15046;50.930;13.334;2023-12-14T00:27:05;20.42;;;12.32;;
27632;SDS011;15046;50.930;13.334;2023-12-14T00:29:31;19.58;;;12.43;;
27632;SDS011;15046;50.930;13.334;2023-12-14T00:31:57;22.75;;;13.75;;
27632;SDS011;15046;50.930;13.334;2023-12-14T00:34:23;21.67;;;13.10;;
27632;SDS011;15046;50.930;13.334;2023-12-14T00:36:49;21.67;;;13.43;;
27632;SDS011;15046;50.930;13.334;2023-12-14T00:39:15;26.23;;;13.80;;
27632;SDS011;15046;50.930;13.334;2023-12-14T00:41:41;18.80;;;12.57;;
27632;SDS011;15046;50.930;13.334;2023-12-14T00:44:07;19.98;;;12.38;;
27632;SDS011;15046;50.930;13.334;2023-12-14T00:46:33;18.73;;;12.50;;
27632;SDS011;15046;50.930;13.334;2023-12-14T00:48:59;18.95;;;12.65;;
27632;SDS011;15046;50.930;13.334;2023-12-14T00:51:26;15.32;;;9.68;;
27632;SDS011;15046;50.930;13.334;2023-12-14T00:53:52;16.70;;;10.27;;
27632;SDS011;15046;50.930;13.334;2023-12-14T00:56:18;10.27;;;5.30;;
27632;SDS011;15046;50.930;13.334;2023-12-14T00:58:43;8.45;;;5.30;;
27632;SDS011;15046;50.930;13.334;2023-12-14T01:01:09;7.43;;;4.78;;
27632;SDS011;15046;50.930;13.334;2023-12-14T01:03:35;8.15;;;5.10;;
27632;SDS011;15046;50.930;13.334;2023-12-14T01:06:01;7.63;;;4.82;;
27632;SDS011;15046;50.930;13.334;2023-12-14T01:08:27;7.07;;;4.40;;
27632;SDS011;15046;50.930;13.334;2023-12-14T01:10:53;9.48;;;4.80;;
27632;SDS011;15046;50.930;13.334;2023-12-14T01:13:19;8.43;;;5.00;;
27632;SDS011;15046;50.930;13.334;2023-12-14T01:15:45;7.90;;;4.70;;
27632;SDS011;15046;50.930;13.334;2023-12-14T01:18:11;7.32;;;4.55;;
27632;SDS011;15046;50.930;13.334;2023-12-14T01:20:38;7.78;;;4.22;;
27632;SDS011;15046;50.930;13.334;2023-12-14T01:23:04;6.72;;;4.20;;
27632;SDS011;15046;50.930;13.334;2023-12-14T01:25:30;9.95;;;5.07;;
27632;SDS011;15046;50.930;13.334;2023-12-14T01:27:56;7.20;;;4.82;;
27632;SDS011;15046;50.930;13.334;2023-12-14T01:30:22;8.52;;;4.82;;
27632;SDS011;15046;50.930;13.334;2023-12-14T01:32:48;8.05;;;4.53;;
27632;SDS011;15046;50.930;13.334;2023-12-14T01:35:14;6.80;;;4.43;;
27632;SDS011;15046;50.930;13.334;2023-12-14T01:37:40;8.20;;;4.78;;
27632;SDS011;15046;50.930;13.334;2023-12-14T01:40:06;10.00;;;5.53;;
27632;SDS011;15046;50.930;13.334;2023-12-14T01:42:33;7.95;;;5.13;;
27632;SDS011;15046;50.930;13.334;2023-12-14T01:44:59;8.38;;;5.20;;
27632;SDS011;15046;50.930;13.334;2023-12-14T01:47:24;10.00;;;5.65;;
27632;SDS011;15046;50.930;13.334;2023-12-14T01:49:50;9.07;;;5.45;;
27632;SDS011;15046;50.930;13.334;2023-12-14T01:52:16;9.82;;;5.47;;
27632;SDS011;15046;50.930;13.334;2023-12-14T01:54:42;13.30;;;6.45;;
27632;SDS011;15046;50.930;13.334;2023-12-14T01:57:08;23.27;;;6.88;;
27632;SDS011;15046;50.930;13.334;2023-12-14T01:59:34;12.52;;;6.78;;
27632;SDS011;15046;50.930;13.334;2023-12-14T02:02:00;11.18;;;6.50;;
27632;SDS011;15046;50.930;13.334;2023-12-14T02:04:27;10.52;;;6.45;;
27632;SDS011;15046;50.930;13.334;2023-12-14T02:06:53;14.27;;;7.50;;
27632;SDS011;15046;50.930;13.334;2023-12-14T02:09:19;10.77;;;6.70;;
27632;SDS011;15046;50.930;13.334;2023-12-14T02:11:45;11.95;;;7.35;;
27632;SDS011;15046;50.930;13.334;2023-12-14T02:14:12;11.95;;;6.43;;
27632;SDS011;15046;50.930;13.334;2023-12-14T02:16:38;11.30;;;6.50;;
27632;SDS011;15046;50.930;13.334;2023-12-14T02:19:04;15.82;;;7.00;;
27632;SDS011;15046;50.930;13.334;2023-12-14T02:21:30;13.32;;;7.15;;
27632;SDS011;15046;50.930;13.334;2023-12-14T02:23:56;14.23;;;7.55;;
27632;SDS011;15046;50.930;13.334;2023-12-14T02:26:22;15.40;;;8.13;;
27632;SDS011;15046;50.930;13.334;2023-12-14T02:28:48;14.15;;;8.43;;
27632;SDS011;15046;50.930;13.334;2023-12-14T02:31:14;14.32;;;8.02;;
27632;SDS011;15046;50.930;13.334;2023-12-14T02:33:40;13.10;;;7.72;;
27632;SDS011;15046;50.930;13.334;2023-12-14T02:36:06;16.85;;;9.25;;
27632;SDS011;15046;50.930;13.334;2023-12-14T02:38:32;14.88;;;8.90;;
27632;SDS011;15046;50.930;13.334;2023-12-14T02:40:58;20.08;;;8.98;;
27632;SDS011;15046;50.930;13.334;2023-12-14T02:43:24;18.98;;;9.07;;
27632;SDS011;15046;50.930;13.334;2023-12-14T02:45:50;20.08;;;9.20;;
27632;SDS011;15046;50.930;13.334;2023-12-14T02:48:16;19.15;;;10.02;;
27632;SDS011;15046;50.930;13.334;2023-12-14T02:50:42;20.00;;;10.05;;
27632;SDS011;15046;50.930;13.334;2023-12-14T02:53:08;21.40;;;10.07;;
27632;SDS011;15046;50.930;13.334;2023-12-14T02:55:34;17.23;;;10.45;;
27632;SDS011;15046;50.930;13.334;2023-12-14T02:58:00;19.50;;;10.48;;
27632;SDS011;15046;50.930;13.334;2023-12-14T03:00:26;25.73;;;11.40;;
27632;SDS011;15046;50.930;13.334;2023-12-14T03:02:52;20.67;;;11.05;;
27632;SDS011;15046;50.930;13.334;2023-12-14T03:05:17;25.90;;;12.52;;
27632;SDS011;15046;50.930;13.334;2023-12-14T03:07:43;23.50;;;13.15;;
27632;SDS011;15046;50.930;13.334;2023-12-14T03:10:09;22.90;;;12.82;;
27632;SDS011;15046;50.930;13.334;2023-12-14T03:12:35;24.65;;;13.82;;
27632;SDS011;15046;50.930;13.334;2023-12-14T03:15:01;26.13;;;14.57;;
27632;SDS011;15046;50.930;13.334;2023-12-14T03:17:27;32.85;;;16.10;;
27632;SDS011;15046;50.930;13.334;2023-12-14T03:19:53;31.00;;;15.40;;
27632;SDS011;15046;50.930;13.334;2023-12-14T03:22:19;29.40;;;15.38;;
27632;SDS011;15046;50.930;13.334;2023-12-14T03:24:45;27.48;;;14.65;;
27632;SDS011;15046;50.930;13.334;2023-12-14T03:27:11;28.65;;;15.20;;
27632;SDS011;15046;50.930;13.334;2023-12-14T03:29:37;29.65;;;15.23;;
27632;SDS011;15046;50.930;13.334;2023-12-14T03:32:03;34.00;;;15.23;;
27632;SDS011;15046;50.930;13.334;2023-12-14T03:34:29;30.98;;;15.80;;
27632;SDS011;15046;50.930;13.334;2023-12-14T03:36:55;28.70;;;14.80;;
27632;SDS011;15046;50.930;13.334;2023-12-14T03:39:21;34.72;;;16.13;;
27632;SDS011;15046;50.930;13.334;2023-12-14T03:41:47;34.58;;;16.38;;
27632;SDS011;15046;50.930;13.334;2023-12-14T03:44:13;32.63;;;16.08;;
27632;SDS011;15046;50.930;13.334;2023-12-14T03:46:38;31.30;;;16.63;;
27632;SDS011;15046;50.930;13.334;2023-12-14T03:49:04;40.17;;;16.65;;
27632;SDS011;15046;50.930;13.334;2023-12-14T03:51:30;52.10;;;19.38;;
27632;SDS011;15046;50.930;13.334;2023-12-14T03:53:56;57.70;;;21.85;;
27632;SDS011;15046;50.930;13.334;2023-12-14T03:56:22;68.38;;;24.45;;
27632;SDS011;15046;50.930;13.334;2023-12-14T03:58:49;132.68;;;31.27;;
27632;SDS011;15046;50.930;13.334;2023-12-14T04:01:16;197.15;;;38.17;;
27632;SDS011;15046;50.930;13.334;2023-12-14T04:03:42;192.15;;;39.55;;
27632;SDS011;15046;50.930;13.334;2023-12-14T04:06:09;190.48;;;38.03;;
27632;SDS011;15046;50.930;13.334;2023-12-14T04:08:35;225.95;;;42.30;;
27632;SDS011;15046;50.930;13.334;2023-12-14T04:11:01;184.13;;;39.05;;
27632;SDS011;15046;50.930;13.334;2023-12-14T04:13:27;179.00;;;39.80;;
27632;SDS011;15046;50.930;13.334;2023-12-14T04:15:53;239.18;;;46.55;;
27632;SDS011;15046;50.930;13.334;2023-12-14T04:18:19;288.35;;;49.38;;
27632;SDS011;15046;50.930;13.334;2023-12-14T04:20:45;279.73;;;50.58;;
27632;SDS011;15046;50.930;13.334;2023-12-14T04:23:11;266.73;;;47.08;;
27632;SDS011;15046;50.930;13.334;2023-12-14T04:25:36;259.83;;;49.22;;
27632;SDS011;15046;50.930;13.334;2023-12-14T04:28:02;300.05;;;50.10;;
27632;SDS011;15046;50.930;13.334;2023-12-14T04:30:28;423.88;;;61.35;;
27632;SDS011;15046;50.930;13.334;2023-12-14T04:36:17;419.00;;;63.45;;
27632;SDS011;15046;50.930;13.334;2023-12-14T04:38:42;385.10;;;64.50;;
27632;SDS011;15046;50.930;13.334;2023-12-14T04:41:11;432.88;;;69.47;;
27632;SDS011;15046;50.930;13.334;2023-12-14T04:43:37;631.58;;;88.95;;
27632;SDS011;15046;50.930;13.334;2023-12-14T04:46:03;605.22;;;86.65;;
27632;SDS011;15046;50.930;13.334;2023-12-14T04:48:31;426.45;;;67.78;;
27632;SDS011;15046;50.930;13.334;2023-12-14T04:50:57;551.28;;;78.53;;
27632;SDS011;15046;50.930;13.334;2023-12-14T04:53:23;542.75;;;80.28;;
27632;SDS011;15046;50.930;13.334;2023-12-14T04:55:49;551.00;;;81.75;;
27632;SDS011;15046;50.930;13.334;2023-12-14T04:58:14;648.63;;;91.55;;
27632;SDS011;15046;50.930;13.334;2023-12-14T05:00:40;416.60;;;70.50;;
27632;SDS011;15046;50.930;13.334;2023-12-14T05:03:06;530.05;;;80.47;;
27632;SDS011;15046;50.930;13.334;2023-12-14T05:05:32;494.10;;;76.57;;
27632;SDS011;15046;50.930;13.334;2023-12-14T05:07:58;483.55;;;75.28;;
27632;SDS011;15046;50.930;13.334;2023-12-14T05:10:24;635.30;;;93.65;;
27632;SDS011;15046;50.930;13.334;2023-12-14T05:12:50;431.40;;;72.47;;
27632;SDS011;15046;50.930;13.334;2023-12-14T05:15:16;622.60;;;89.70;;
27632;SDS011;15046;50.930;13.334;2023-12-14T05:17:42;632.30;;;95.00;;
27632;SDS011;15046;50.930;13.334;2023-12-14T05:20:10;600.53;;;95.03;;
27632;SDS011;15046;50.930;13.334;2023-12-14T05:22:36;579.78;;;86.90;;
27632;SDS011;15046;50.930;13.334;2023-12-14T05:25:03;479.73;;;81.75;;
27632;SDS011;15046;50.930;13.334;2023-12-14T05:27:29;527.25;;;85.00;;
27632;SDS011;15046;50.930;13.334;2023-12-14T05:29:55;394.52;;;73.57;;
27632;SDS011;15046;50.930;13.334;2023-12-14T05:32:21;520.78;;;83.97;;
27632;SDS011;15046;50.930;13.334;2023-12-14T05:34:47;485.33;;;81.43;;
27632;SDS011;15046;50.930;13.334;2023-12-14T05:37:13;481.88;;;74.95;;
27632;SDS011;15046;50.930;13.334;2023-12-14T05:39:41;493.23;;;76.63;;
27632;SDS011;15046;50.930;13.334;2023-12-14T05:42:07;495.85;;;75.90;;
27632;SDS011;15046;50.930;13.334;2023-12-14T05:44:33;547.78;;;88.68;;
27632;SDS011;15046;50.930;13.334;2023-12-14T05:46:59;335.92;;;59.72;;
27632;SDS011;15046;50.930;13.334;2023-12-14T05:49:25;641.90;;;94.07;;
27632;SDS011;15046;50.930;13.334;2023-12-14T05:51:51;633.30;;;91.78;;
27632;SDS011;15046;50.930;13.334;2023-12-14T05:54:17;450.88;;;72.40;;
27632;SDS011;15046;50.930;13.334;2023-12-14T05:56:43;511.23;;;82.32;;
27632;SDS011;15046;50.930;13.334;2023-12-14T05:59:09;419.67;;;69.47;;
27632;SDS011;15046;50.930;13.334;2023-12-14T06:01:35;519.30;;;81.43;;
27632;SDS011;15046;50.930;13.334;2023-12-14T06:04:01;331.52;;;61.05;;
27632;SDS011;15046;50.930;13.334;2023-12-14T06:06:27;438.98;;;71.78;;
27632;SDS011;15046;50.930;13.334;2023-12-14T06:08:53;534.38;;;80.03;;
27632;SDS011;15046;50.930;13.334;2023-12-14T06:11:19;551.10;;;84.60;;
27632;SDS011;15046;50.930;13.334;2023-12-14T06:13:45;389.60;;;68.53;;
27632;SDS011;15046;50.930;13.334;2023-12-14T06:16:11;324.95;;;59.28;;
27632;SDS011;15046;50.930;13.334;2023-12-14T06:18:39;296.25;;;54.17;;
27632;SDS011;15046;50.930;13.334;2023-12-14T06:21:07;272.58;;;49.28;;
27632;SDS011;15046;50.930;13.334;2023-12-14T06:23:34;324.30;;;58.38;;
27632;SDS011;15046;50.930;13.334;2023-12-14T06:26:02;285.63;;;50.03;;
27632;SDS011;15046;50.930;13.334;2023-12-14T06:28:29;184.93;;;39.40;;
27632;SDS011;15046;50.930;13.334;2023-12-14T06:30:56;187.75;;;40.50;;
27632;SDS011;15046;50.930;13.334;2023-12-14T06:33:22;197.52;;;44.75;;
27632;SDS011;15046;50.930;13.334;2023-12-14T06:35:48;199.57;;;39.95;;
27632;SDS011;15046;50.930;13.334;2023-12-14T06:38:14;117.88;;;32.13;;
27632;SDS011;15046;50.930;13.334;2023-12-14T06:40:39;110.45;;;29.25;;
27632;SDS011;15046;50.930;13.334;2023-12-14T06:43:05;106.53;;;28.23;;
27632;SDS011;15046;50.930;13.334;2023-12-14T06:45:31;88.13;;;24.73;;
27632;SDS011;15046;50.930;13.334;2023-12-14T06:47:57;56.67;;;19.63;;
27632;SDS011;15046;50.930;13.334;2023-12-14T06:50:23;55.88;;;18.77;;
27632;SDS011;15046;50.930;13.334;2023-12-14T06:52:49;68.75;;;19.48;;
27632;SDS011;15046;50.930;13.334;2023-12-14T06:55:15;77.40;;;20.55;;
27632;SDS011;15046;50.930;13.334;2023-12-14T06:57:43;95.85;;;22.15;;
27632;SDS011;15046;50.930;13.334;2023-12-14T07:00:12;48.08;;;16.05;;
27632;SDS011;15046;50.930;13.334;2023-12-14T07:02:39;74.25;;;19.83;;
27632;SDS011;15046;50.930;13.334;2023-12-14T07:05:04;57.28;;;19.45;;
27632;SDS011;15046;50.930;13.334;2023-12-14T07:07:31;59.70;;;18.27;;
27632;SDS011;15046;50.930;13.334;2023-12-14T07:09:56;60.83;;;18.05;;
27632;SDS011;15046;50.930;13.334;2023-12-14T07:12:22;48.17;;;16.10;;
27632;SDS011;15046;50.930;13.334;2023-12-14T07:14:48;61.63;;;17.65;;
27632;SDS011;15046;50.930;13.334;2023-12-14T07:17:14;53.60;;;18.23;;
27632;SDS011;15046;50.930;13.334;2023-12-14T07:19:40;66.95;;;18.63;;
27632;SDS011;15046;50.930;13.334;2023-12-14T07:22:06;79.50;;;21.23;;
27632;SDS011;15046;50.930;13.334;2023-12-14T07:24:32;71.78;;;20.17;;
27632;SDS011;15046;50.930;13.334;2023-12-14T07:26:58;56.28;;;17.73;;
27632;SDS011;15046;50.930;13.334;2023-12-14T07:29:24;74.40;;;19.25;;
27632;SDS011;15046;50.930;13.334;2023-12-14T07:31:49;80.38;;;20.40;;
27632;SDS011;15046;50.930;13.334;2023-12-14T07:34:15;84.82;;;20.98;;
27632;SDS011;15046;50.930;13.334;2023-12-14T07:36:41;131.23;;;24.13;;
27632;SDS011;15046;50.930;13.334;2023-12-14T07:39:07;186.05;;;28.88;;
27632;SDS011;15046;50.930;13.334;2023-12-14T07:41:34;175.80;;;32.28;;
27632;SDS011;15046;50.930;13.334;2023-12-14T07:44:00;199.75;;;31.80;;
27632;SDS011;15046;50.930;13.334;2023-12-14T07:46:26;146.20;;;25.52;;
27632;SDS011;15046;50.930;13.334;2023-12-14T07:48:52;189.38;;;29.15;;
27632;SDS011;15046;50.930;13.334;2023-12-14T07:51:18;156.45;;;28.35;;
27632;SDS011;15046;50.930;13.334;2023-12-14T07:53:44;194.23;;;30.67;;
27632;SDS011;15046;50.930;13.334;2023-12-14T07:56:12;175.63;;;28.58;;
27632;SDS011;15046;50.930;13.334;2023-12-14T07:58:37;160.57;;;29.67;;
27632;SDS011;15046;50.930;13.334;2023-12-14T08:01:03;173.65;;;28.55;;
27632;SDS011;15046;50.930;13.334;2023-12-14T08:03:29;224.30;;;34.33;;
27632;SDS011;15046;50.930;13.334;2023-12-14T08:05:55;291.42;;;39.72;;
27632;SDS011;15046;50.930;13.334;2023-12-14T08:08:21;282.42;;;40.38;;
27632;SDS011;15046;50.930;13.334;2023-12-14T08:10:47;197.15;;;32.28;;
27632;SDS011;15046;50.930;13.334;2023-12-14T08:13:13;204.95;;;36.03;;
27632;SDS011;15046;50.930;13.334;2023-12-14T08:15:40;221.95;;;34.92;;
27632;SDS011;15046;50.930;13.334;2023-12-14T08:18:06;254.73;;;37.60;;
27632;SDS011;15046;50.930;13.334;2023-12-14T08:20:32;232.05;;;36.70;;
27632;SDS011;15046;50.930;13.334;2023-12-14T08:22:58;217.82;;;34.28;;
27632;SDS011;15046;50.930;13.334;2023-12-14T08:25:24;364.23;;;45.35;;
27632;SDS011;15046;50.930;13.334;2023-12-14T08:27:51;327.88;;;41.42;;
27632;SDS011;15046;50.930;13.334;2023-12-14T08:30:16;363.90;;;46.17;;
27632;SDS011;15046;50.930;13.334;2023-12-14T08:32:42;291.90;;;37.85;;
27632;SDS011;15046;50.930;13.334;2023-12-14T08:35:08;243.77;;;34.40;;
27632;SDS011;15046;50.930;13.334;2023-12-14T08:37:37;269.40;;;36.15;;
27632;SDS011;15046;50.930;13.334;2023-12-14T08:40:04;360.75;;;42.35;;
27632;SDS011;15046;50.930;13.334;2023-12-14T08:42:32;306.65;;;38.00;;
27632;SDS011;15046;50.930;13.334;2023-12-14T08:44:59;259.85;;;34.53;;
27632;SDS011;15046;50.930;13.334;2023-12-14T08:47:25;183.73;;;29.92;;
27632;SDS011;15046;50.930;13.334;2023-12-14T08:49:50;249.43;;;32.88;;
27632;SDS011;15046;50.930;13.334;2023-12-14T08:52:16;187.45;;;29.33;;
27632;SDS011;15046;50.930;13.334;2023-12-14T08:54:43;184.38;;;26.80;;
27632;SDS011;15046;50.930;13.334;2023-12-14T08:57:09;164.60;;;25.70;;
27632;SDS011;15046;50.930;13.334;2023-12-14T08:59:36;93.13;;;19.92;;
27632;SDS011;15046;50.930;13.334;2023-12-14T09:02:02;148.27;;;26.10;;
27632;SDS011;15046;50.930;13.334;2023-12-14T09:04:28;121.65;;;22.63;;
27632;SDS011;15046;50.930;13.334;2023-12-14T09:06:53;99.43;;;21.05;;
27632;SDS011;15046;50.930;13.334;2023-12-14T09:09:19;81.07;;;17.70;;
27632;SDS011;15046;50.930;13.334;2023-12-14T09:11:45;113.28;;;22.90;;
27632;SDS011;15046;50.930;13.334;2023-12-14T09:14:11;96.70;;;21.25;;
27632;SDS011;15046;50.930;13.334;2023-12-14T09:16:37;110.00;;;21.00;;
27632;SDS011;15046;50.930;13.334;2023-12-14T09:19:03;72.57;;;18.08;;
27632;SDS011;15046;50.930;13.334;2023-12-14T09:21:29;47.78;;;16.38;;
27632;SDS011;15046;50.930;13.334;2023-12-14T09:23:55;65.43;;;17.42;;
27632;SDS011;15046;50.930;13.334;2023-12-14T09:26:21;56.97;;;16.23;;
27632;SDS011;15046;50.930;13.334;2023-12-14T09:28:47;58.30;;;15.82;;
27632;SDS011;15046;50.930;13.334;2023-12-14T09:31:13;44.90;;;14.80;;
27632;SDS011;15046;50.930;13.334;2023-12-14T09:33:41;47.15;;;14.20;;
27632;SDS011;15046;50.930;13.334;2023-12-14T09:36:07;43.08;;;13.32;;
27632;SDS011;15046;50.930;13.334;2023-12-14T09:38:33;46.15;;;13.15;;
27632;SDS011;15046;50.930;13.334;2023-12-14T09:41:01;44.47;;;13.45;;
27632;SDS011;15046;50.930;13.334;2023-12-14T09:43:27;52.25;;;15.38;;
27632;SDS011;15046;50.930;13.334;2023-12-14T09:45:54;62.40;;;16.60;;
27632;SDS011;15046;50.930;13.334;2023-12-14T09:48:21;66.93;;;17.73;;
27632;SDS011;15046;50.930;13.334;2023-12-14T09:50:48;87.18;;;20.70;;
27632;SDS011;15046;50.930;13.334;2023-12-14T09:53:15;117.13;;;21.42;;
27632;SDS011;15046;50.930;13.334;2023-12-14T09:55:41;117.28;;;22.30;;
27632;SDS011;15046;50.930;13.334;2023-12-14T09:58:07;136.00;;;22.33;;
27632;SDS011;15046;50.930;13.334;2023-12-14T10:03:20;155.55;;;23.52;;
27632;SDS011;15046;50.930;13.334;2023-12-14T10:05:49;113.07;;;20.13;;
27632;SDS011;15046;50.930;13.334;2023-12-14T10:08:15;112.40;;;20.15;;
27632;SDS011;15046;50.930;13.334;2023-12-14T10:10:42;79.93;;;18.02;;
27632;SDS011;15046;50.930;13.334;2023-12-14T10:13:08;53.25;;;16.10;;
27632;SDS011;15046;50.930;13.334;2023-12-14T10:15:42;53.08;;;15.25;;
27632;SDS011;15046;50.930;13.334;2023-12-14T10:18:09;42.90;;;13.27;;
27632;SDS011;15046;50.930;13.334;2023-12-14T10:20:35;44.20;;;13.65;;
27632;SDS011;15046;50.930;13.334;2023-12-14T10:23:06;35.75;;;12.02;;
27632;SDS011;15046;50.930;13.334;2023-12-14T10:25:33;38.65;;;12.23;;
27632;SDS011;15046;50.930;13.334;2023-12-14T10:28:00;39.35;;;11.57;;
27632;SDS011;15046;50.930;13.334;2023-12-14T10:30:28;42.55;;;13.55;;
27632;SDS011;15046;50.930;13.334;2023-12-14T10:32:55;40.42;;;14.90;;
27632;SDS011;15046;50.930;13.334;2023-12-14T10:35:22;57.17;;;15.40;;
27632;SDS011;15046;50.930;13.334;2023-12-14T10:37:49;57.60;;;13.27;;
27632;SDS011;15046;50.930;13.334;2023-12-14T10:40:16;61.00;;;17.27;;
27632;SDS011;15046;50.930;13.334;2023-12-14T10:42:43;75.38;;;19.08;;
27632;SDS011;15046;50.930;13.334;2023-12-14T10:45:13;71.25;;;16.15;;
27632;SDS011;15046;50.930;13.334;2023-12-14T10:47:45;61.40;;;14.10;;
27632;SDS011;15046;50.930;13.334;2023-12-14T10:50:15;63.45;;;14.07;;
27632;SDS011;15046;50.930;13.334;2023-12-14T10:52:42;61.25;;;15.50;;
27632;SDS011;15046;50.930;13.334;2023-12-14T10:55:15;72.13;;;15.60;;
27632;SDS011;15046;50.930;13.334;2023-12-14T10:57:53;92.75;;;20.88;;
27632;SDS011;15046;50.930;13.334;2023-12-14T11:00:19;60.60;;;17.40;;
27632;SDS011;15046;50.930;13.334;2023-12-14T11:02:46;68.50;;;16.50;;
27632;SDS011;15046;50.930;13.334;2023-12-14T11:05:13;106.50;;;19.80;;
27632;SDS011;15046;50.930;13.334;2023-12-14T11:07:45;54.58;;;13.88;;
27632;SDS011;15046;50.930;13.334;2023-12-14T11:10:12;43.65;;;11.05;;
27632;SDS011;15046;50.930;13.334;2023-12-14T11:13:01;64.13;;;16.90;;
27632;SDS011;15046;50.930;13.334;2023-12-14T11:15:27;63.65;;;14.15;;
27632;SDS011;15046;50.930;13.334;2023-12-14T11:23:11;32.30;;;10.20;;
27632;SDS011;15046;50.930;13.334;2023-12-14T11:25:40;28.20;;;9.07;;
27632;SDS011;15046;50.930;13.334;2023-12-14T11:28:06;26.08;;;8.63;;
27632;SDS011;15046;50.930;13.334;2023-12-14T11:30:36;24.80;;;8.33;;
27632;SDS011;15046;50.930;13.334;2023-12-14T11:33:02;24.92;;;9.88;;
27632;SDS011;15046;50.930;13.334;2023-12-14T11:35:28;19.35;;;8.20;;
27632;SDS011;15046;50.930;13.334;2023-12-14T11:37:55;21.40;;;7.47;;
27632;SDS011;15046;50.930;13.334;2023-12-14T11:40:27;17.50;;;7.78;;
27632;SDS011;15046;50.930;13.334;2023-12-14T11:43:00;15.95;;;6.65;;
27632;SDS011;15046;50.930;13.334;2023-12-14T11:45:32;11.93;;;5.82;;
27632;SDS011;15046;50.930;13.334;2023-12-14T11:48:09;17.13;;;7.00;;
27632;SDS011;15046;50.930;13.334;2023-12-14T11:50:40;17.90;;;8.10;;
27632;SDS011;15046;50.930;13.334;2023-12-14T11:53:07;14.38;;;5.47;;
27632;SDS011;15046;50.930;13.334;2023-12-14T11:55:34;15.98;;;6.70;;
27632;SDS011;15046;50.930;13.334;2023-12-14T11:58:01;13.98;;;6.43;;
27632;SDS011;15046;50.930;13.334;2023-12-14T12:00:28;15.27;;;6.43;;
27632;SDS011;15046;50.930;13.334;2023-12-14T12:03:08;15.30;;;6.10;;
27632;SDS011;15046;50.930;13.334;2023-12-14T12:05:43;18.45;;;8.05;;
27632;SDS011;15046;50.930;13.334;2023-12-14T12:08:11;13.38;;;5.70;;
27632;SDS011;15046;50.930;13.334;2023-12-14T12:10:38;11.48;;;4.78;;
27632;SDS011;15046;50.930;13.334;2023-12-14T12:13:13;11.52;;;4.47;;
27632;SDS011;15046;50.930;13.334;2023-12-14T12:15:40;11.75;;;4.50;;
27632;SDS011;15046;50.930;13.334;2023-12-14T12:18:07;10.65;;;5.03;;
27632;SDS011;15046;50.930;13.334;2023-12-14T12:20:43;10.75;;;4.40;;
27632;SDS011;15046;50.930;13.334;2023-12-14T12:23:09;15.90;;;5.22;;
27632;SDS011;15046;50.930;13.334;2023-12-14T12:25:35;15.45;;;5.50;;
27632;SDS011;15046;50.930;13.334;2023-12-14T12:28:02;15.27;;;5.40;;
27632;SDS011;15046;50.930;13.334;2023-12-14T12:32:57;15.88;;;5.80;;
27632;SDS011;15046;50.930;13.334;2023-12-14T12:35:23;13.00;;;5.53;;
27632;SDS011;15046;50.930;13.334;2023-12-14T12:37:50;16.15;;;6.25;;
27632;SDS011;15046;50.930;13.334;2023-12-14T12:40:20;16.10;;;7.03;;
27632;SDS011;15046;50.930;13.334;2023-12-14T12:42:47;18.35;;;7.20;;
27632;SDS011;15046;50.930;13.334;2023-12-14T12:45:14;23.83;;;8.02;;
27632;SDS011;15046;50.930;13.334;2023-12-14T12:47:43;18.70;;;7.82;;
27632;SDS011;15046;50.930;13.334;2023-12-14T12:50:10;17.27;;;6.95;;
27632;SDS011;15046;50.930;13.334;2023-12-14T12:52:36;17.50;;;6.40;;
27632;SDS011;15046;50.930;13.334;2023-12-14T12:55:03;14.45;;;6.60;;
27632;SDS011;15046;50.930;13.334;2023-12-14T12:57:32;15.05;;;6.55;;
27632;SDS011;15046;50.930;13.334;2023-12-14T12:59:58;17.63;;;6.60;;
27632;SDS011;15046;50.930;13.334;2023-12-14T13:02:24;19.05;;;7.60;;
27632;SDS011;15046;50.930;13.334;2023-12-14T13:04:50;17.90;;;7.18;;
27632;SDS011;15046;50.930;13.334;2023-12-14T13:07:16;18.95;;;8.02;;
27632;SDS011;15046;50.930;13.334;2023-12-14T13:09:43;15.38;;;6.60;;
27632;SDS011;15046;50.930;13.334;2023-12-14T13:12:09;14.98;;;6.05;;
27632;SDS011;15046;50.930;13.334;2023-12-14T13:14:36;11.65;;;5.30;;
27632;SDS011;15046;50.930;13.334;2023-12-14T13:17:02;13.25;;;5.43;;
27632;SDS011;15046;50.930;13.334;2023-12-14T13:19:28;13.57;;;5.75;;
27632;SDS011;15046;50.930;13.334;2023-12-14T13:21:54;12.57;;;5.65;;
27632;SDS011;15046;50.930;13.334;2023-12-14T13:24:23;12.57;;;5.93;;
27632;SDS011;15046;50.930;13.334;2023-12-14T13:26:49;9.15;;;4.10;;
27632;SDS011;15046;50.930;13.334;2023-12-14T13:29:15;12.70;;;5.35;;
27632;SDS011;15046;50.930;13.334;2023-12-14T13:31:41;11.23;;;4.70;;
27632;SDS011;15046;50.930;13.334;2023-12-14T13:34:07;10.85;;;5.00;;
27632;SDS011;15046;50.930;13.334;2023-12-14T13:36:33;10.98;;;5.32;;
27632;SDS011;15046;50.930;13.334;2023-12-14T13:38:59;12.68;;;5.80;;
27632;SDS011;15046;50.930;13.334;2023-12-14T13:41:27;14.55;;;6.15;;
27632;SDS011;15046;50.930;13.334;2023-12-14T13:43:53;13.07;;;5.95;;
27632;SDS011;15046;50.930;13.334;2023-12-14T13:46:19;12.68;;;5.75;;
27632;SDS011;15046;50.930;13.334;2023-12-14T13:48:45;10.68;;;5.93;;
27632;SDS011;15046;50.930;13.334;2023-12-14T13:51:11;11.02;;;5.10;;
27632;SDS011;15046;50.930;13.334;2023-12-14T13:53:37;8.35;;;4.05;;
27632;SDS011;15046;50.930;13.334;2023-12-14T13:56:04;7.63;;;4.15;;
27632;SDS011;15046;50.930;13.334;2023-12-14T13:58:30;8.57;;;4.32;;
27632;SDS011;15046;50.930;13.334;2023-12-14T14:00:59;10.05;;;4.75;;
27632;SDS011;15046;50.930;13.334;2023-12-14T14:03:26;8.80;;;4.50;;
27632;SDS011;15046;50.930;13.334;2023-12-14T14:05:52;9.23;;;4.95;;
27632;SDS011;15046;50.930;13.334;2023-12-14T14:08:18;10.25;;;5.25;;
27632;SDS011;15046;50.930;13.334;2023-12-14T14:10:45;12.30;;;6.03;;
27632;SDS011;15046;50.930;13.334;2023-12-14T14:13:11;10.40;;;5.28;;
27632;SDS011;15046;50.930;13.334;2023-12-14T14:15:37;11.05;;;5.53;;
27632;SDS011;15046;50.930;13.334;2023-12-14T14:18:03;11.20;;;5.97;;
27632;SDS011;15046;50.930;13.334;2023-12-14T14:20:28;11.68;;;6.30;;